sensor_id;sensor_type;location;lat;lon;timestamp;pressure;altitude;pressure_sealevel;temperature;humidity
50364;BME280;36272;59.400;17.982;2022-07-24T00:01:34;101099.97;;;18.34;73.23
50364;BME280;36272;59.400;17.982;2022-07-24T00:06:36;101097.53;;;18.33;73.05
50364;BME280;36272;59.400;17.982;2022-07-24T00:11:38;101104.31;;;18.30;73.16
50364;BME280;36272;59.400;17.982;2022-07-24T00:16:40;101097.25;;;18.29;72.84
50364;BME280;36272;59.400;17.982;2022-07-24T00:21:42;101097.50;;;18.27;72.67
50364;BME280;36272;59.400;17.982;2022-07-24T00:26:45;101099.69;;;18.31;72.94
50364;BME280;36272;59.400;17.982;2022-07-24T00:31:47;101104.03;;;18.32;73.34
50364;BME280;36272;59.400;17.982;2022-07-24T00:36:49;101104.56;;;18.34;72.26
50364;BME280;36272;59.400;17.982;2022-07-24T00:41:51;101105.38;;;18.34;72.15
50364;BME280;36272;59.400;17.982;2022-07-24T00:46:55;101102.66;;;18.34;72.82
50364;BME280;36272;59.400;17.982;2022-07-24T00:51:57;101101.59;;;18.35;72.35
50364;BME280;36272;59.400;17.982;2022-07-24T00:56:58;101097.81;;;18.36;72.55
50364;BME280;36272;59.400;17.982;2022-07-24T01:02:00;101093.47;;;18.35;72.48
50364;BME280;36272;59.400;17.982;2022-07-24T01:07:02;101097.53;;;18.33;73.09
50364;BME280;36272;59.400;17.982;2022-07-24T01:12:04;101087.75;;;18.26;73.17
50364;BME280;36272;59.400;17.982;2022-07-24T01:17:06;101096.44;;;18.28;72.91
50364;BME280;36272;59.400;17.982;2022-07-24T01:22:07;101098.09;;;18.35;72.88
50364;BME280;36272;59.400;17.982;2022-07-24T01:27:10;101082.13;;;18.38;72.53
50364;BME280;36272;59.400;17.982;2022-07-24T01:32:12;101098.09;;;18.40;73.10
50364;BME280;36272;59.400;17.982;2022-07-24T01:37:13;101103.25;;;18.41;73.45
50364;BME280;36272;59.400;17.982;2022-07-24T01:42:15;101099.75;;;18.41;73.56
50364;BME280;36272;59.400;17.982;2022-07-24T01:47:17;101096.47;;;18.39;73.35
50364;BME280;36272;59.400;17.982;2022-07-24T01:52:18;101097.56;;;18.38;73.21
50364;BME280;36272;59.400;17.982;2022-07-24T01:57:20;101096.97;;;18.31;73.63
50364;BME280;36272;59.400;17.982;2022-07-24T02:02:21;101088.59;;;18.27;74.22
50364;BME280;36272;59.400;17.982;2022-07-24T02:07:23;101092.94;;;18.28;74.13
50364;BME280;36272;59.400;17.982;2022-07-24T02:12:25;101083.44;;;18.25;74.68
50364;BME280;36272;59.400;17.982;2022-07-24T02:17:26;101095.88;;;18.26;74.91
50364;BME280;36272;59.400;17.982;2022-07-24T02:22:28;101088.59;;;18.27;74.49
50364;BME280;36272;59.400;17.982;2022-07-24T02:27:30;101088.56;;;18.22;74.84
50364;BME280;36272;59.400;17.982;2022-07-24T02:32:31;101092.91;;;18.23;74.92
50364;BME280;36272;59.400;17.982;2022-07-24T02:37:38;101074.19;;;18.16;74.37
50364;BME280;36272;59.400;17.982;2022-07-24T02:42:40;101088.25;;;18.18;74.73
50364;BME280;36272;59.400;17.982;2022-07-24T02:47:53;101084.50;;;18.24;74.74
50364;BME280;36272;59.400;17.982;2022-07-24T02:52:55;101090.78;;;18.30;74.84
50364;BME280;36272;59.400;17.982;2022-07-24T02:57:57;101092.91;;;18.33;75.01
50364;BME280;36272;59.400;17.982;2022-07-24T03:02:59;101095.63;;;18.33;74.94
50364;BME280;36272;59.400;17.982;2022-07-24T03:08:01;101092.38;;;18.36;75.40
50364;BME280;36272;59.400;17.982;2022-07-24T03:13:03;101094.03;;;18.37;75.65
50364;BME280;36272;59.400;17.982;2022-07-24T03:18:04;101091.63;;;18.41;75.63
50364;BME280;36272;59.400;17.982;2022-07-24T03:23:06;101102.16;;;18.42;75.98
50364;BME280;36272;59.400;17.982;2022-07-24T03:28:07;101105.69;;;18.38;76.68
50364;BME280;36272;59.400;17.982;2022-07-24T03:33:09;101105.09;;;18.31;77.33
50364;BME280;36272;59.400;17.982;2022-07-24T03:38:16;101088.06;;;18.30;77.68
50364;BME280;36272;59.400;17.982;2022-07-24T03:43:17;101102.41;;;18.31;77.83
50364;BME280;36272;59.400;17.982;2022-07-24T03:48:19;101108.38;;;18.33;78.12
50364;BME280;36272;59.400;17.982;2022-07-24T03:53:21;101109.72;;;18.35;78.02
50364;BME280;36272;59.400;17.982;2022-07-24T03:58:22;101101.63;;;18.40;78.02
50364;BME280;36272;59.400;17.982;2022-07-24T04:03:24;101101.63;;;18.46;77.99
50364;BME280;36272;59.400;17.982;2022-07-24T04:08:31;101080.28;;;18.54;77.93
50364;BME280;36272;59.400;17.982;2022-07-24T04:13:33;101091.94;;;18.60;77.92
50364;BME280;36272;59.400;17.982;2022-07-24T04:18:35;101098.97;;;18.61;77.63
50364;BME280;36272;59.400;17.982;2022-07-24T04:23:37;101096.81;;;18.63;77.47
50364;BME280;36272;59.400;17.982;2022-07-24T04:28:38;101097.38;;;18.65;77.80
50364;BME280;36272;59.400;17.982;2022-07-24T04:33:40;101097.09;;;18.67;77.41
50364;BME280;36272;59.400;17.982;2022-07-24T04:38:42;101096.28;;;18.66;77.48
50364;BME280;36272;59.400;17.982;2022-07-24T04:43:44;101097.91;;;18.67;77.71
50364;BME280;36272;59.400;17.982;2022-07-24T04:48:45;101106.59;;;18.69;77.78
50364;BME280;36272;59.400;17.982;2022-07-24T04:53:47;101111.19;;;18.74;77.59
50364;BME280;36272;59.400;17.982;2022-07-24T04:58:49;101106.59;;;18.75;77.77
50364;BME280;36272;59.400;17.982;2022-07-24T05:03:50;101105.78;;;18.79;77.94
50364;BME280;36272;59.400;17.982;2022-07-24T05:08:52;101099.84;;;18.82;77.69
50364;BME280;36272;59.400;17.982;2022-07-24T05:13:54;101104.44;;;18.92;77.74
50364;BME280;36272;59.400;17.982;2022-07-24T05:18:55;101107.22;;;19.02;77.11
50364;BME280;36272;59.400;17.982;2022-07-24T05:23:57;101102.88;;;19.12;77.24
50364;BME280;36272;59.400;17.982;2022-07-24T05:29:03;101092.06;;;19.17;76.65
50364;BME280;36272;59.400;17.982;2022-07-24T05:34:07;101097.72;;;19.26;76.84
50364;BME280;36272;59.400;17.982;2022-07-24T05:39:09;101099.63;;;19.36;76.80
50364;BME280;36272;59.400;17.982;2022-07-24T05:44:11;101111.28;;;19.41;76.21
50364;BME280;36272;59.400;17.982;2022-07-24T05:49:13;101103.97;;;19.42;75.89
50364;BME280;36272;59.400;17.982;2022-07-24T05:54:14;101103.66;;;19.49;75.36
50364;BME280;36272;59.400;17.982;2022-07-24T05:59:16;101101.50;;;19.56;75.41
50364;BME280;36272;59.400;17.982;2022-07-24T06:04:18;101103.94;;;19.63;75.12
50364;BME280;36272;59.400;17.982;2022-07-24T06:09:19;101103.91;;;19.68;74.84
50364;BME280;36272;59.400;17.982;2022-07-24T06:14:21;101105.81;;;19.72;74.45
50364;BME280;36272;59.400;17.982;2022-07-24T06:19:23;101103.34;;;19.76;74.53
50364;BME280;36272;59.400;17.982;2022-07-24T06:24:24;101105.50;;;19.84;73.98
50364;BME280;36272;59.400;17.982;2022-07-24T06:29:26;101107.16;;;19.90;73.83
50364;BME280;36272;59.400;17.982;2022-07-24T06:34:28;101119.09;;;20.00;74.07
50364;BME280;36272;59.400;17.982;2022-07-24T06:39:29;101113.09;;;20.08;72.95
50364;BME280;36272;59.400;17.982;2022-07-24T06:44:31;101125.81;;;20.13;71.92
50364;BME280;36272;59.400;17.982;2022-07-24T06:49:37;101123.91;;;20.18;70.89
50364;BME280;36272;59.400;17.982;2022-07-24T06:54:38;101121.44;;;20.22;70.06
50364;BME280;36272;59.400;17.982;2022-07-24T06:59:43;101118.97;;;20.31;69.62
50364;BME280;36272;59.400;17.982;2022-07-24T07:04:45;101120.56;;;20.37;68.90
50364;BME280;36272;59.400;17.982;2022-07-24T07:09:47;101116.19;;;20.46;68.90
50364;BME280;36272;59.400;17.982;2022-07-24T07:14:49;101123.22;;;20.53;68.44
50364;BME280;36272;59.400;17.982;2022-07-24T07:19:50;101135.09;;;20.62;66.85
50364;BME280;36272;59.400;17.982;2022-07-24T07:24:52;101137.78;;;20.72;66.45
50364;BME280;36272;59.400;17.982;2022-07-24T07:29:54;101134.50;;;20.80;65.03
50364;BME280;36272;59.400;17.982;2022-07-24T07:34:56;101127.13;;;20.86;64.70
50364;BME280;36272;59.400;17.982;2022-07-24T07:39:57;101130.63;;;20.92;63.84
50364;BME280;36272;59.400;17.982;2022-07-24T07:44:59;101120.81;;;20.96;64.15
50364;BME280;36272;59.400;17.982;2022-07-24T07:50:01;101122.34;;;21.07;63.66
50364;BME280;36272;59.400;17.982;2022-07-24T07:55:03;101108.19;;;21.10;62.01
50364;BME280;36272;59.400;17.982;2022-07-24T08:00:06;101123.09;;;21.18;61.62
50364;BME280;36272;59.400;17.982;2022-07-24T08:05:08;101123.53;;;21.31;61.60
50364;BME280;36272;59.400;17.982;2022-07-24T08:10:10;101110.06;;;21.45;61.62
50364;BME280;36272;59.400;17.982;2022-07-24T08:15:12;101125.22;;;21.56;61.29
50364;BME280;36272;59.400;17.982;2022-07-24T08:20:14;101122.44;;;21.66;61.02
50364;BME280;36272;59.400;17.982;2022-07-24T08:25:15;101110.34;;;21.78;60.11
50364;BME280;36272;59.400;17.982;2022-07-24T08:30:17;101122.09;;;21.97;59.57
50364;BME280;36272;59.400;17.982;2022-07-24T08:35:19;101128.22;;;22.08;59.17
50364;BME280;36272;59.400;17.982;2022-07-24T08:40:22;101111.44;;;22.25;58.49
50364;BME280;36272;59.400;17.982;2022-07-24T08:45:24;101110.69;;;22.39;58.41
50364;BME280;36272;59.400;17.982;2022-07-24T08:50:25;101113.25;;;22.54;56.90
50364;BME280;36272;59.400;17.982;2022-07-24T08:55:28;101092.50;;;22.58;56.51
50364;BME280;36272;59.400;17.982;2022-07-24T09:00:30;101114.38;;;22.72;56.21
50364;BME280;36272;59.400;17.982;2022-07-24T09:05:32;101122.53;;;22.92;55.83
50364;BME280;36272;59.400;17.982;2022-07-24T09:10:36;101108.66;;;23.07;55.45
50364;BME280;36272;59.400;17.982;2022-07-24T09:16:04;101110.88;;;23.24;55.31
50364;BME280;36272;59.400;17.982;2022-07-24T09:21:14;101107.16;;;23.34;54.60
50364;BME280;36272;59.400;17.982;2022-07-24T09:26:16;101121.34;;;23.50;55.74
50364;BME280;36272;59.400;17.982;2022-07-24T09:31:18;101127.22;;;23.57;55.88
50364;BME280;36272;59.400;17.982;2022-07-24T09:36:20;101109.94;;;23.62;55.54
50364;BME280;36272;59.400;17.982;2022-07-24T09:41:23;101122.88;;;23.70;55.88
50364;BME280;36272;59.400;17.982;2022-07-24T09:46:26;101122.78;;;23.89;56.13
50364;BME280;36272;59.400;17.982;2022-07-24T09:51:29;101123.19;;;23.97;56.34
50364;BME280;36272;59.400;17.982;2022-07-24T09:56:31;101125.41;;;23.95;56.31
50364;BME280;36272;59.400;17.982;2022-07-24T10:01:33;101110.69;;;24.10;55.57
50364;BME280;36272;59.400;17.982;2022-07-24T10:06:37;101107.63;;;24.25;55.69
50364;BME280;36272;59.400;17.982;2022-07-24T10:11:42;101118.56;;;24.25;55.82
50364;BME280;36272;59.400;17.982;2022-07-24T10:16:49;101114.75;;;24.12;55.55
50364;BME280;36272;59.400;17.982;2022-07-24T10:21:59;101110.16;;;24.08;55.05
50364;BME280;36272;59.400;17.982;2022-07-24T10:27:11;101108.13;;;24.27;54.76
50364;BME280;36272;59.400;17.982;2022-07-24T10:32:18;101115.50;;;24.41;54.56
50364;BME280;36272;59.400;17.982;2022-07-24T10:42:33;101127.91;;;24.61;54.15
50364;BME280;36272;59.400;17.982;2022-07-24T10:47:34;101125.84;;;24.80;54.12
50364;BME280;36272;59.400;17.982;2022-07-24T10:52:38;101137.38;;;24.91;53.92
50364;BME280;36272;59.400;17.982;2022-07-24T10:58:03;101125.03;;;25.17;52.91
50364;BME280;36272;59.400;17.982;2022-07-24T11:03:17;101105.53;;;25.18;52.56
50364;BME280;36272;59.400;17.982;2022-07-24T11:18:34;101103.22;;;26.06;52.08
50364;BME280;36272;59.400;17.982;2022-07-24T11:23:36;101108.84;;;26.85;50.59
50364;BME280;36272;59.400;17.982;2022-07-24T11:28:38;101104.41;;;28.06;48.17
50364;BME280;36272;59.400;17.982;2022-07-24T11:33:39;101102.44;;;29.34;46.24
50364;BME280;36272;59.400;17.982;2022-07-24T11:38:42;101080.03;;;30.35;44.36
50364;BME280;36272;59.400;17.982;2022-07-24T11:43:53;101083.78;;;30.02;44.22
50364;BME280;36272;59.400;17.982;2022-07-24T11:49:05;101078.50;;;30.09;43.95
50364;BME280;36272;59.400;17.982;2022-07-24T11:54:07;101094.13;;;30.86;42.97
50364;BME280;36272;59.400;17.982;2022-07-24T11:59:30;101080.22;;;31.59;42.30
50364;BME280;36272;59.400;17.982;2022-07-24T12:04:32;101069.84;;;32.24;41.00
50364;BME280;36272;59.400;17.982;2022-07-24T12:10:03;101073.44;;;32.84;40.49
50364;BME280;36272;59.400;17.982;2022-07-24T12:15:08;101068.63;;;33.47;39.39
50364;BME280;36272;59.400;17.982;2022-07-24T12:20:13;101073.88;;;33.83;38.70
50364;BME280;36272;59.400;17.982;2022-07-24T12:25:15;101071.66;;;34.19;38.17
50364;BME280;36272;59.400;17.982;2022-07-24T12:30:30;101064.56;;;34.25;38.35
50364;BME280;36272;59.400;17.982;2022-07-24T12:35:35;101064.16;;;34.53;38.02
50364;BME280;36272;59.400;17.982;2022-07-24T12:46:10;101061.28;;;34.46;37.39
50364;BME280;36272;59.400;17.982;2022-07-24T12:51:12;101058.91;;;34.45;37.45
50364;BME280;36272;59.400;17.982;2022-07-24T12:56:16;101052.69;;;33.94;37.27
50364;BME280;36272;59.400;17.982;2022-07-24T13:01:18;101043.38;;;33.83;39.93
50364;BME280;36272;59.400;17.982;2022-07-24T13:06:34;101032.28;;;34.40;38.07
50364;BME280;36272;59.400;17.982;2022-07-24T13:11:37;101036.56;;;34.72;36.99
50364;BME280;36272;59.400;17.982;2022-07-24T13:16:44;101033.53;;;34.84;36.14
50364;BME280;36272;59.400;17.982;2022-07-24T13:21:49;101050.44;;;35.06;36.46
50364;BME280;36272;59.400;17.982;2022-07-24T13:26:51;101043.50;;;35.34;35.79
50364;BME280;36272;59.400;17.982;2022-07-24T13:31:53;101037.06;;;35.22;35.60
50364;BME280;36272;59.400;17.982;2022-07-24T13:36:55;101044.81;;;35.02;36.02
50364;BME280;36272;59.400;17.982;2022-07-24T13:41:59;101033.75;;;35.54;35.82
50364;BME280;36272;59.400;17.982;2022-07-24T13:47:00;101033.69;;;36.14;35.16
50364;BME280;36272;59.400;17.982;2022-07-24T13:52:02;101035.03;;;36.67;34.67
50364;BME280;36272;59.400;17.982;2022-07-24T13:57:04;101035.91;;;37.29;34.20
50364;BME280;36272;59.400;17.982;2022-07-24T14:02:06;101036.28;;;37.53;33.96
50364;BME280;36272;59.400;17.982;2022-07-24T14:07:08;101027.44;;;37.76;33.67
50364;BME280;36272;59.400;17.982;2022-07-24T14:12:10;101038.56;;;37.94;33.28
50364;BME280;36272;59.400;17.982;2022-07-24T14:17:12;101036.97;;;38.01;33.23
50364;BME280;36272;59.400;17.982;2022-07-24T14:22:13;101031.53;;;37.28;33.02
50364;BME280;36272;59.400;17.982;2022-07-24T14:27:15;101031.91;;;37.30;33.41
50364;BME280;36272;59.400;17.982;2022-07-24T14:32:17;101022.66;;;37.81;32.77
50364;BME280;36272;59.400;17.982;2022-07-24T14:37:18;101021.06;;;37.76;32.03
50364;BME280;36272;59.400;17.982;2022-07-24T14:42:20;101017.06;;;37.77;31.96
50364;BME280;36272;59.400;17.982;2022-07-24T14:47:21;101015.44;;;37.90;31.63
50364;BME280;36272;59.400;17.982;2022-07-24T14:52:24;101010.00;;;37.29;32.10
50364;BME280;36272;59.400;17.982;2022-07-24T14:57:26;101010.38;;;36.73;32.34
50364;BME280;36272;59.400;17.982;2022-07-24T15:02:27;101012.44;;;35.84;33.20
50364;BME280;36272;59.400;17.982;2022-07-24T15:07:29;101016.41;;;35.23;33.41
50364;BME280;36272;59.400;17.982;2022-07-24T15:12:30;101011.81;;;34.52;34.76
50364;BME280;36272;59.400;17.982;2022-07-24T15:17:32;101025.91;;;33.78;35.43
50364;BME280;36272;59.400;17.982;2022-07-24T15:22:34;101016.53;;;33.33;36.02
50364;BME280;36272;59.400;17.982;2022-07-24T15:27:36;101008.25;;;33.10;36.59
50364;BME280;36272;59.400;17.982;2022-07-24T15:32:38;101011.78;;;33.10;35.89
50364;BME280;36272;59.400;17.982;2022-07-24T15:37:39;101008.78;;;32.96;36.54
50364;BME280;36272;59.400;17.982;2022-07-24T15:42:41;101003.16;;;32.88;36.74
50364;BME280;36272;59.400;17.982;2022-07-24T15:47:42;101006.66;;;32.66;37.07
50364;BME280;36272;59.400;17.982;2022-07-24T15:52:44;100990.59;;;32.12;37.55
50364;BME280;36272;59.400;17.982;2022-07-24T15:57:49;100982.13;;;31.85;37.80
50364;BME280;36272;59.400;17.982;2022-07-24T16:02:51;100985.19;;;31.64;38.26
50364;BME280;36272;59.400;17.982;2022-07-24T16:07:53;100970.69;;;31.51;38.41
50364;BME280;36272;59.400;17.982;2022-07-24T16:12:55;100988.66;;;31.25;38.82
50364;BME280;36272;59.400;17.982;2022-07-24T16:17:57;100978.47;;;30.81;39.82
50364;BME280;36272;59.400;17.982;2022-07-24T16:22:58;100978.66;;;30.44;40.67
50364;BME280;36272;59.400;17.982;2022-07-24T16:28:01;100996.84;;;29.92;41.46
50364;BME280;36272;59.400;17.982;2022-07-24T16:33:05;100992.31;;;29.46;42.23
50364;BME280;36272;59.400;17.982;2022-07-24T16:38:07;101004.44;;;29.08;42.79
50364;BME280;36272;59.400;17.982;2022-07-24T16:43:09;101014.78;;;28.77;43.51
50364;BME280;36272;59.400;17.982;2022-07-24T16:48:10;101022.72;;;28.58;44.13
50364;BME280;36272;59.400;17.982;2022-07-24T16:53:12;101019.19;;;28.36;44.95
50364;BME280;36272;59.400;17.982;2022-07-24T16:58:14;101013.63;;;28.24;44.81
50364;BME280;36272;59.400;17.982;2022-07-24T17:03:15;101022.38;;;27.96;45.15
50364;BME280;36272;59.400;17.982;2022-07-24T17:08:17;101019.41;;;27.80;45.76
50364;BME280;36272;59.400;17.982;2022-07-24T17:13:19;101020.59;;;27.70;45.83
50364;BME280;36272;59.400;17.982;2022-07-24T17:18:21;101006.97;;;27.52;46.40
50364;BME280;36272;59.400;17.982;2022-07-24T17:23:23;101013.13;;;27.49;46.70
50364;BME280;36272;59.400;17.982;2022-07-24T17:28:28;101015.53;;;27.42;46.68
50364;BME280;36272;59.400;17.982;2022-07-24T17:33:31;101016.44;;;27.16;48.29
50364;BME280;36272;59.400;17.982;2022-07-24T17:38:32;101013.28;;;26.96;49.51
50364;BME280;36272;59.400;17.982;2022-07-24T17:43:34;101024.59;;;26.68;50.63
50364;BME280;36272;59.400;17.982;2022-07-24T17:48:36;101036.72;;;26.41;51.29
50364;BME280;36272;59.400;17.982;2022-07-24T17:53:37;101032.19;;;26.19;52.03
50364;BME280;36272;59.400;17.982;2022-07-24T17:58:39;101030.34;;;25.96;52.58
50364;BME280;36272;59.400;17.982;2022-07-24T18:03:41;101034.81;;;25.75;53.38
50364;BME280;36272;59.400;17.982;2022-07-24T18:08:43;101036.53;;;25.62;53.60
50364;BME280;36272;59.400;17.982;2022-07-24T18:13:44;101030.63;;;25.37;54.27
50364;BME280;36272;59.400;17.982;2022-07-24T18:18:47;101030.66;;;25.14;55.05
50364;BME280;36272;59.400;17.982;2022-07-24T18:23:51;101027.53;;;24.98;55.07
50364;BME280;36272;59.400;17.982;2022-07-24T18:28:52;101035.59;;;24.80;55.61
50364;BME280;36272;59.400;17.982;2022-07-24T18:33:54;101036.38;;;24.72;55.78
50364;BME280;36272;59.400;17.982;2022-07-24T18:38:57;101012.47;;;24.64;56.22
50364;BME280;36272;59.400;17.982;2022-07-24T18:43:59;101038.13;;;24.54;56.66
50364;BME280;36272;59.400;17.982;2022-07-24T18:49:01;101035.38;;;24.31;56.78
50364;BME280;36272;59.400;17.982;2022-07-24T18:54:04;101027.81;;;24.14;56.88
50364;BME280;36272;59.400;17.982;2022-07-24T18:59:06;101048.34;;;24.12;56.77
50364;BME280;36272;59.400;17.982;2022-07-24T19:04:08;101048.78;;;24.05;57.05
50364;BME280;36272;59.400;17.982;2022-07-24T19:09:09;101056.03;;;23.96;57.07
50364;BME280;36272;59.400;17.982;2022-07-24T19:14:11;101061.31;;;23.92;56.92
50364;BME280;36272;59.400;17.982;2022-07-24T19:19:13;101053.91;;;23.79;57.25
50364;BME280;36272;59.400;17.982;2022-07-24T19:24:15;101050.78;;;23.71;57.21
50364;BME280;36272;59.400;17.982;2022-07-24T19:29:16;101054.03;;;23.59;57.38
50364;BME280;36272;59.400;17.982;2022-07-24T19:34:18;101055.63;;;23.46;57.47
50364;BME280;36272;59.400;17.982;2022-07-24T19:39:22;101036.44;;;23.38;57.72
50364;BME280;36272;59.400;17.982;2022-07-24T19:44:24;101064.69;;;23.28;57.99
50364;BME280;36272;59.400;17.982;2022-07-24T19:49:26;101074.94;;;23.17;58.07
50364;BME280;36272;59.400;17.982;2022-07-24T19:54:27;101062.38;;;23.02;58.12
50364;BME280;36272;59.400;17.982;2022-07-24T19:59:29;101061.00;;;22.85;58.20
50364;BME280;36272;59.400;17.982;2022-07-24T20:04:31;101064.50;;;22.72;58.28
50364;BME280;36272;59.400;17.982;2022-07-24T20:09:33;101071.13;;;22.66;58.23
50364;BME280;36272;59.400;17.982;2022-07-24T20:14:34;101070.16;;;22.56;58.22
50364;BME280;36272;59.400;17.982;2022-07-24T20:19:36;101064.59;;;22.48;58.48
50364;BME280;36272;59.400;17.982;2022-07-24T20:24:38;101062.19;;;22.41;58.55
50364;BME280;36272;59.400;17.982;2022-07-24T20:29:40;101079.78;;;22.30;58.58
50364;BME280;36272;59.400;17.982;2022-07-24T20:34:41;101090.56;;;22.16;58.69
50364;BME280;36272;59.400;17.982;2022-07-24T20:39:43;101081.72;;;22.05;59.00
50364;BME280;36272;59.400;17.982;2022-07-24T20:44:45;101077.44;;;21.98;59.01
50364;BME280;36272;59.400;17.982;2022-07-24T20:49:46;101076.75;;;21.88;59.32
50364;BME280;36272;59.400;17.982;2022-07-24T20:54:48;101070.09;;;21.75;59.47
50364;BME280;36272;59.400;17.982;2022-07-24T20:59:50;101072.91;;;21.64;60.01
50364;BME280;36272;59.400;17.982;2022-07-24T21:04:51;101083.03;;;21.59;60.25
50364;BME280;36272;59.400;17.982;2022-07-24T21:09:53;101067.53;;;21.54;60.14
50364;BME280;36272;59.400;17.982;2022-07-24T21:14:55;101071.19;;;21.44;60.58
50364;BME280;36272;59.400;17.982;2022-07-24T21:19:56;101073.16;;;21.38;60.92
50364;BME280;36272;59.400;17.982;2022-07-24T21:24:58;101064.75;;;21.35;60.79
50364;BME280;36272;59.400;17.982;2022-07-24T21:30:03;101048.75;;;21.28;61.26
50364;BME280;36272;59.400;17.982;2022-07-24T21:35:05;101061.28;;;21.29;61.26
50364;BME280;36272;59.400;17.982;2022-07-24T21:40:07;101066.50;;;21.20;61.47
50364;BME280;36272;59.400;17.982;2022-07-24T21:45:09;101068.22;;;21.11;61.77
50364;BME280;36272;59.400;17.982;2022-07-24T21:50:10;101066.34;;;21.06;61.96
50364;BME280;36272;59.400;17.982;2022-07-24T21:55:12;101068.56;;;20.99;61.87
50364;BME280;36272;59.400;17.982;2022-07-24T22:00:15;101058.28;;;20.96;62.33
50364;BME280;36272;59.400;17.982;2022-07-24T22:05:16;101073.03;;;20.90;62.50
50364;BME280;36272;59.400;17.982;2022-07-24T22:10:18;101063.84;;;20.80;62.73
50364;BME280;36272;59.400;17.982;2022-07-24T22:15:20;101066.31;;;20.72;62.88
50364;BME280;36272;59.400;17.982;2022-07-24T22:20:22;101064.72;;;20.65;63.10
50364;BME280;36272;59.400;17.982;2022-07-24T22:25:23;101064.75;;;20.60;63.04
50364;BME280;36272;59.400;17.982;2022-07-24T22:30:25;101060.22;;;20.50;63.33
50364;BME280;36272;59.400;17.982;2022-07-24T22:35:27;101060.25;;;20.45;63.52
50364;BME280;36272;59.400;17.982;2022-07-24T22:40:29;101059.44;;;20.40;63.69
50364;BME280;36272;59.400;17.982;2022-07-24T22:45:30;101064.13;;;20.29;63.85
50364;BME280;36272;59.400;17.982;2022-07-24T22:50:32;101051.38;;;20.24;64.02
50364;BME280;36272;59.400;17.982;2022-07-24T22:55:34;101060.34;;;20.19;64.11
50364;BME280;36272;59.400;17.982;2022-07-24T23:00:36;101059.31;;;20.10;64.48
50364;BME280;36272;59.400;17.982;2022-07-24T23:05:39;101054.69;;;20.11;64.38
50364;BME280;36272;59.400;17.982;2022-07-24T23:10:41;101058.78;;;20.08;64.90
50364;BME280;36272;59.400;17.982;2022-07-24T23:15:42;101063.41;;;20.02;64.82
50364;BME280;36272;59.400;17.982;2022-07-24T23:20:44;101049.31;;;19.95;65.17
50364;BME280;36272;59.400;17.982;2022-07-24T23:25:45;101053.69;;;19.91;65.33
50364;BME280;36272;59.400;17.982;2022-07-24T23:30:47;101055.06;;;19.88;65.36
50364;BME280;36272;59.400;17.982;2022-07-24T23:35:49;101050.69;;;19.82;65.57
50364;BME280;36272;59.400;17.982;2022-07-24T23:40:51;101046.38;;;19.76;65.76
50364;BME280;36272;59.400;17.982;2022-07-24T23:45:52;101048.03;;;19.67;66.23
50364;BME280;36272;59.400;17.982;2022-07-24T23:50:54;101038.03;;;19.57;66.52
50364;BME280;36272;59.400;17.982;2022-07-24T23:55:56;101040.19;;;19.50;67.19
